Historyczne dane pomiarowe

Dodano dane terminowe – wersja testowa.

Dane z okresu 1951-2019

Wersja bazy: 1.34 [2019-03-16, lista zmian], aktualizacja planowana na 2019-04-15

Dane meteo z obszaru Polski uzyskane na podstawie danych udostępnionych przez Instytut Meteorologii i Gospodarki Wodnej – Państwowy Instytut Badawczy.

 

Wybierz Datę:    

       

TemperaturaWilgotnośćWiatrCiśnienieOpadyŚniegCzas trwania zjawisk
 Stacja t tx tn tng RH VA  wxwx mslp ppp RRR   cm mm wxwxwxwxwxwxwx
1994-08-14 12.2 14.7 9.6 9.2 75.5- 6.3 7.0---- 2.1------------
1994-08-13 14.9 21.1 11.6 10.1 86.5- 7.0 3.0---- 3.6------------
1994-08-12 16.2 20.6 10.6 9.3 84.5- 2.3 1.0---- 2.1------------
1994-08-11 19.9 24.0 13.9 11.9 67.0- 3.0 2.7---- 0.0------------
1994-08-10 18.9 24.7 11.1 9.7 72.5- 1.7 0.7---- 0.0------------
1994-08-09 18.7 22.7 13.6 12.3 83.0- 3.3 1.3---- 0.3------------
1994-08-08 19.7 26.4 12.7 12.2 71.8- 2.3 2.0---- 0.0------------
1994-08-07 20.0 24.5 14.5 13.5 76.3- 2.7 2.0---- 0.0------------
1994-08-06 22.8 28.1 16.5 14.2 68.5- 1.3 1.7---- 0.0------------
1994-08-05 22.5 30.9 13.8 12.8 67.8- 1.3 2.0---- 0.0------------
1994-08-04 21.4 27.0 15.9 15.6 73.8- 2.7 1.7---- 0.0------------
1994-08-03 21.0 24.3 17.9 17.0 84.0- 5.0 1.7---- 35.2------------
1994-08-02 25.0 33.4 19.4 18.9 71.0- 5.7 1.7---- 2.6------------
1994-08-01 25.1 31.7 19.6 19.2 67.8- 3.3 3.0---- 0.0------------
1994-07-31 27.2 34.6 20.1 17.1 63.3- 4.3 3.3---- 2.9------------
1994-07-30 26.8 35.0 17.7 16.0 58.8- 3.0 2.0---- 0.0------------
1994-07-29 26.1 34.8 18.1 15.8 57.5- 4.0 1.3---- 0.0------------
1994-07-28 25.4 33.8 16.4 14.9 63.5- 3.0 1.3---- 0.0------------
1994-07-27 25.0 34.0 15.8 13.2 55.3- 3.0 2.0---- 0.0------------
1994-07-26 25.0 31.8 15.7 12.5 52.5- 1.7 1.7---- 0.0------------
1994-07-25 23.1 29.0 13.7 10.5 56.8- 1.0 2.7---- 0.0------------
1994-07-24 22.2 29.4 12.8 9.6 52.0- 0.3 2.7---- 0.0------------
1994-07-23 20.7 28.1 10.5 8.3 56.0- 2.3 2.3---- 0.0------------
1994-07-22 19.9 26.1 8.9 6.8 57.3- 1.0 2.0---- 0.0------------
1994-07-21 18.9 28.0 7.7 5.6 58.8- 1.0 2.0---- 0.0------------
1994-07-20 17.4 23.4 7.9 5.8 62.3- 2.0 2.3---- 0.0------------
1994-07-19 16.9 21.8 8.7 7.1 63.0- 2.7 2.3---- 0.0------------
1994-07-18 16.2 21.5 7.3 5.5 70.3- 2.7 3.0---- 0.0------------
1994-07-17 18.5 22.6 14.0 12.7 69.3- 4.0 2.0---- 0.0------------
1994-07-16 20.5 26.1 16.1 15.9 74.8- 6.0 2.0---- 0.0------------
1994-07-15 24.8 31.2 18.7 15.2 69.0- 4.7 2.0---- 4.2------------
1994-07-14 25.5 31.7 16.8 14.2 63.0- 3.7 1.3---- 0.0------------
1994-07-13 24.5 30.5 16.1 13.4 52.8- 2.7 3.0---- 0.0------------
1994-07-12 22.7 28.5 12.5 10.8 51.8- 1.3 2.7---- 0.0------------
1994-07-11 20.6 28.0 10.7 10.7 61.8- 0.7 1.3---- 0.0------------
1994-07-10 20.3 26.5 11.9 11.6 63.0- 1.7 1.7---- 0.0------------
1994-07-09 17.1 22.4 12.5 12.3 76.8- 3.0 2.0---- 0.0------------
1994-07-08 15.0 20.7 8.7 6.2 78.0- 6.7 1.7---- 10.2------------
1994-07-07 15.9 21.6 6.5 3.2 60.3- 2.0 1.7---- 0.0------------
1994-07-06 16.1 22.0 9.1 8.1 63.0- 3.3 2.0---- 0.0------------
1994-07-05 15.4 21.6 7.1 4.8 66.0- 4.0 2.7---- 0.0------------
1994-07-04 18.0 23.8 11.4 10.9 57.3- 1.0 3.0---- 0.0------------
1994-07-03 17.3 22.6 8.0 5.5 55.8- 1.7 2.7---- 0.0------------
1994-07-02 16.1 21.6 6.8 5.3 62.3- 0.7 2.0---- 0.0------------
1994-07-01 15.0 19.0 10.7 10.1 71.0- 1.3 3.7---- 0.0------------
1994-06-30 17.2 26.1 14.5 14.5 72.8- 4.3 4.7---- 0.0------------
1994-06-29 23.1 30.2 14.0 13.0 66.3- 3.3 2.3---- 4.0------------
1994-06-28 19.4 26.9 10.0 9.0 65.8- 1.7 1.7---- 0.0------------
1994-06-27 19.1 23.6 14.1 13.5 68.8- 4.3 3.0---- 0.0------------
1994-06-26 20.3 29.2 10.8 7.0 58.0- 1.3 3.3---- 0.0------------
1994-06-25 16.1 23.2 4.7 2.6 56.5- 1.3 2.0---- 0.0------------
1994-06-24 12.4 16.0 8.7 8.1 67.3- 3.3 3.7---- 0.0------------
1994-06-23 11.4 15.3 9.0 8.7 67.3- 5.0 8.3---- 4.6------------
1994-06-22 14.9 19.1 6.0 4.0 85.0- 7.7 5.0---- 2.4------------
1994-06-21 14.3 21.4 6.1 4.6 67.3- 4.0 2.0---- 1.3------------
1994-06-20 11.8 13.6 9.1 8.5 70.8- 5.0 6.0---- 0.0------------
1994-06-19 11.8 14.1 9.5 9.5 92.5- 8.0 4.7---- 2.7------------
1994-06-18 10.7 15.2 4.0 3.2 78.5- 6.0 3.0---- 4.1------------
1994-06-17 8.6 11.6 3.9 3.6 78.3- 3.0 5.0---- 0.9------------
1994-06-16 9.3 11.9 7.8 7.5 81.8- 6.0 4.0---- 4.1------------
279.3 ms

 

Źródłem pochodzenia danych jest Instytut Meteorologii i Gospodarki Wodnej – Państwowy Instytut Badawczy. Dane Instytutu Meteorologii i Gospodarki Wodnej – Państwowego Instytutu Badawczego zostały przetworzone.

Dane źródłowe można odnaleźć na stronie https://dane.imgw.pl